Sunday, December 21, 2014
15:51 UTC
  |  Log In   |  Register Free
Airport Search:

Seattle-Tacoma International Airport
(KSEA)

FAA data valid effective November 13, 2014 - January 08, 2015 (unless otherwise noted).

 
 
 
 
 
 
 
 
 
 
 
 
 
 

Current Aviation Weather for Seattle-Tacoma International Airport (KSEA)

The most recent METAR observation for KSEA was updated at: 2120
METAR Summary (Translated METAR)
KSEA
182053Z 12006KT 10SM -RA BKN040 OVC055 09/05 A2984 RMK AO2 RAE04B30 SLP112 P0000 60002 T00890050 58026
KRNT
182053Z 16004KT 9SM -RA BKN048 OVC070 09/07 A2984 RMK AO2 RAE14B39 SLP110 P0001 60003 T00940067 58027
(4.6 nm NE from KSEA)
KBFI
182053Z 14003KT 10SM SCT044 BKN055 OVC070 10/06 A2985 RMK AO2 RAE18B40E53 SLP106 P0000 60002 T01000061 58027
(4.9 nm NE from KSEA)
TAF Summary (Translated TAF)
KSEA
211402Z 2114/2218 22014G22KT P6SM SCT015 SCT050 BKN100 FM211700 21014G22KT P6SM BKN050 BKN100 FM220200 19010KT P6SM OVC050 FM220800 19008KT P6SM BKN020 OVC045
KBFI
(4.9 nm NE from KSEA)
211120Z 2112/2212 20010G20KT P6SM SCT050 BKN100 FM211600 18010KT P6SM BKN050 BKN100 FM220800 16005KT P6SM BKN025 OVC050
  Airport Weather Conditions for KSEA

 Current Weather at SEA
51° F
Mostly Cloudy
Southwest winds at 13.8 mph
SEA NOAA Radar

Pressure: 29.79 in
Humidity: 83%
Wind: Southwest at 13.8 MPH (12 KT)
Dew Point: 46.0°F
Visibility: 10.00 mi


Airport Weather Forecast for KSEA

Translated METAR and TAF for KSEA
Translated METAR for KSEA (1551 UTC 21 December 2014)
found at http://aviationweather.gov/adds/metars/
 
METAR text: KSEA 211453Z 21012KT 10SM BKN012 11/08 A2979 RMK AO2 SLP094 T01060078 51018
Conditions at: KSEA (SEATTLE/METRO , WA, US) observed 1453 UTC 21 December 2014
Temperature: 10.6°C (51°F)
Dewpoint: 7.8°C (46°F) [RH = 83%]
Pressure (altimeter): 29.79 inches Hg (1008.9 mb)
[Sea-level pressure: 1009.4 mb]
Winds: from the SSW (210 degrees) at 14 MPH (12 knots; 6.2 m/s)
Visibility: 10 or more miles (16+ km)
Ceiling: 1200 feet AGL
Clouds: broken clouds at 1200 feet AGL
Weather: no significant weather observed at this time
Translated TAF for KSEA
Forecast for: KSEA (SEATTLE/METRO , WA, US)
TAF Text: KSEA 211531Z 2116/2218 21012G22KT P6SM SCT012 BKN100
Forecast period: 1600 to 1800 UTC 21 December 2014
Forecast type: FROM: standard forecast or significant change
Winds: from the SSW (210 degrees) at 14 MPH (12 knots; 6.2 m/s)
gusting to 25 MPH (22 knots; 11.4 m/s)
Visibility: 6 or more miles (10+ km)
Ceiling: 10000 feet AGL
Clouds: scattered clouds at 1200 feet AGL
broken clouds at 10000 feet AGL
Weather: no significant weather forecast for this period
TAF Text: TEMPO 2116/2118 BKN012
Forecast period: 1600 to 1800 UTC 21 December 2014
Forecast type: TEMPORARY: The following changes expected for less than half the time period
Ceiling: 1200 feet AGL
Clouds: broken clouds at 1200 feet AGL
Weather: no significant weather forecast for this period
TAF Text: FM211800 21014G22KT P6SM SCT022 BKN050 BKN100
Forecast period: 1800 UTC 21 December 2014 to 0200 UTC 22 December 2014
Forecast type: FROM: standard forecast or significant change
Winds: from the SSW (210 degrees) at 16 MPH (14 knots; 7.3 m/s)
gusting to 25 MPH (22 knots; 11.4 m/s)
Visibility: 6 or more miles (10+ km)
Ceiling: 5000 feet AGL
Clouds: scattered clouds at 2200 feet AGL
broken clouds at 5000 feet AGL
broken clouds at 10000 feet AGL
Weather: no significant weather forecast for this period
TAF Text: FM220200 19010KT P6SM OVC050
Forecast period: 0200 to 0800 UTC 22 December 2014
Forecast type: FROM: standard forecast or significant change
Winds: from the S (190 degrees) at 12 MPH (10 knots; 5.2 m/s)
Visibility: 6 or more miles (10+ km)
Ceiling: 5000 feet AGL
Clouds: overcast cloud deck at 5000 feet AGL
Weather: no significant weather forecast for this period
TAF Text: FM220800 19008KT P6SM BKN020 OVC045
Forecast period: 0800 to 1800 UTC 22 December 2014
Forecast type: FROM: standard forecast or significant change
Winds: from the S (190 degrees) at 9 MPH (8 knots; 4.2 m/s)
Visibility: 6 or more miles (10+ km)
Ceiling: 2000 feet AGL
Clouds: broken clouds at 2000 feet AGL
overcast cloud deck at 4500 feet AGL
Weather: no significant weather forecast for this period

Find All Airport Services Find A Hotel Find A Rental Car Find A Golf Course Find A Restaurant $100 Hamburger



FBO's on the Field
FBO Company Facility Photos Services Transportation Aviation Fuel Prices: Prices include tax
Catering Weather Repair Courtesy Rental Type 100LL JetA JetA+ MOGAS 8087
 
Aircraft Service Intl.

This FBO has not yet been rated
FS:Avfuel
Last Updated: Dec-16
Login to update fuel prices
SS:
Contact Aircraft Service Intl.More FBO Information
 
Add another FBO Facility Photos Catering Weather Repair Courtesy Rental Type 100LL JetA JetA+ MOGAS 8087
Services Transportation Aviation Fuel Prices: Prices include tax


model-print
model-print
model-print
model-print